sensor_id;sensor_type;location;lat;lon;timestamp;temperature;humidity
9209;DHT22;4639;48.862;9.188;2022-07-22T00:00:35;22.40;99.90
9209;DHT22;4639;48.862;9.188;2022-07-22T00:03:00;22.40;99.90
9209;DHT22;4639;48.862;9.188;2022-07-22T00:05:26;22.40;99.90
9209;DHT22;4639;48.862;9.188;2022-07-22T00:07:51;22.10;99.90
9209;DHT22;4639;48.862;9.188;2022-07-22T00:10:17;22.00;99.90
9209;DHT22;4639;48.862;9.188;2022-07-22T00:12:42;22.00;99.90
9209;DHT22;4639;48.862;9.188;2022-07-22T00:15:09;22.00;99.90
9209;DHT22;4639;48.862;9.188;2022-07-22T00:17:34;22.00;99.90
9209;DHT22;4639;48.862;9.188;2022-07-22T00:20:02;22.00;99.90
9209;DHT22;4639;48.862;9.188;2022-07-22T00:22:28;22.00;99.90
9209;DHT22;4639;48.862;9.188;2022-07-22T00:24:54;22.00;99.90
9209;DHT22;4639;48.862;9.188;2022-07-22T00:27:19;21.90;99.90
9209;DHT22;4639;48.862;9.188;2022-07-22T00:29:45;21.80;99.90
9209;DHT22;4639;48.862;9.188;2022-07-22T00:32:10;21.60;99.90
9209;DHT22;4639;48.862;9.188;2022-07-22T00:34:36;21.60;99.90
9209;DHT22;4639;48.862;9.188;2022-07-22T00:37:02;21.50;99.90
9209;DHT22;4639;48.862;9.188;2022-07-22T00:39:27;21.40;99.90
9209;DHT22;4639;48.862;9.188;2022-07-22T00:41:53;21.30;99.90
9209;DHT22;4639;48.862;9.188;2022-07-22T00:44:18;21.20;99.90
9209;DHT22;4639;48.862;9.188;2022-07-22T00:46:44;21.20;99.90
9209;DHT22;4639;48.862;9.188;2022-07-22T00:49:10;21.20;99.90
9209;DHT22;4639;48.862;9.188;2022-07-22T00:51:36;21.10;99.90
9209;DHT22;4639;48.862;9.188;2022-07-22T00:54:05;21.30;99.90
9209;DHT22;4639;48.862;9.188;2022-07-22T00:56:31;21.20;99.90
9209;DHT22;4639;48.862;9.188;2022-07-22T00:58:59;21.30;99.90
9209;DHT22;4639;48.862;9.188;2022-07-22T01:01:25;21.20;99.90
9209;DHT22;4639;48.862;9.188;2022-07-22T01:03:52;21.10;99.90
9209;DHT22;4639;48.862;9.188;2022-07-22T01:06:17;20.80;99.90
9209;DHT22;4639;48.862;9.188;2022-07-22T01:08:43;20.70;99.90
9209;DHT22;4639;48.862;9.188;2022-07-22T01:11:12;20.50;99.90
9209;DHT22;4639;48.862;9.188;2022-07-22T01:13:38;20.50;99.90
9209;DHT22;4639;48.862;9.188;2022-07-22T01:16:06;20.60;99.90
9209;DHT22;4639;48.862;9.188;2022-07-22T01:18:32;20.70;99.90
9209;DHT22;4639;48.862;9.188;2022-07-22T01:20:58;20.80;99.90
9209;DHT22;4639;48.862;9.188;2022-07-22T01:23:24;20.90;99.90
9209;DHT22;4639;48.862;9.188;2022-07-22T01:25:50;21.00;99.90
9209;DHT22;4639;48.862;9.188;2022-07-22T01:28:16;21.00;99.90
9209;DHT22;4639;48.862;9.188;2022-07-22T01:30:41;21.00;99.90
9209;DHT22;4639;48.862;9.188;2022-07-22T01:33:07;21.10;99.90
9209;DHT22;4639;48.862;9.188;2022-07-22T01:35:32;21.00;99.90
9209;DHT22;4639;48.862;9.188;2022-07-22T01:37:58;21.00;99.90
9209;DHT22;4639;48.862;9.188;2022-07-22T01:40:23;20.90;99.90
9209;DHT22;4639;48.862;9.188;2022-07-22T01:42:49;20.80;99.90
9209;DHT22;4639;48.862;9.188;2022-07-22T01:45:15;20.80;99.90
9209;DHT22;4639;48.862;9.188;2022-07-22T01:47:41;20.60;99.90
9209;DHT22;4639;48.862;9.188;2022-07-22T01:50:08;20.60;99.90
9209;DHT22;4639;48.862;9.188;2022-07-22T01:52:34;20.60;99.90
9209;DHT22;4639;48.862;9.188;2022-07-22T01:55:00;20.60;99.90
9209;DHT22;4639;48.862;9.188;2022-07-22T01:57:26;20.60;99.90
9209;DHT22;4639;48.862;9.188;2022-07-22T01:59:51;20.60;99.90
9209;DHT22;4639;48.862;9.188;2022-07-22T02:02:17;20.60;99.90
9209;DHT22;4639;48.862;9.188;2022-07-22T02:04:42;20.60;99.90
9209;DHT22;4639;48.862;9.188;2022-07-22T02:07:08;20.70;99.90
9209;DHT22;4639;48.862;9.188;2022-07-22T02:09:33;20.70;99.90
9209;DHT22;4639;48.862;9.188;2022-07-22T02:11:59;20.70;99.90
9209;DHT22;4639;48.862;9.188;2022-07-22T02:14:25;20.60;99.90
9209;DHT22;4639;48.862;9.188;2022-07-22T02:16:50;20.40;99.90
9209;DHT22;4639;48.862;9.188;2022-07-22T02:19:16;20.50;99.90
9209;DHT22;4639;48.862;9.188;2022-07-22T02:21:41;20.50;99.90
9209;DHT22;4639;48.862;9.188;2022-07-22T02:24:07;20.40;99.90
9209;DHT22;4639;48.862;9.188;2022-07-22T02:26:33;20.40;99.90
9209;DHT22;4639;48.862;9.188;2022-07-22T02:28:59;20.50;99.90
9209;DHT22;4639;48.862;9.188;2022-07-22T02:31:25;20.50;99.90
9209;DHT22;4639;48.862;9.188;2022-07-22T02:33:51;20.50;99.90
9209;DHT22;4639;48.862;9.188;2022-07-22T02:36:16;20.40;99.90
9209;DHT22;4639;48.862;9.188;2022-07-22T02:38:42;20.30;99.90
9209;DHT22;4639;48.862;9.188;2022-07-22T02:41:07;20.30;99.90
9209;DHT22;4639;48.862;9.188;2022-07-22T02:43:33;20.10;99.90
9209;DHT22;4639;48.862;9.188;2022-07-22T02:45:59;20.00;99.90
9209;DHT22;4639;48.862;9.188;2022-07-22T02:48:24;20.00;99.90
9209;DHT22;4639;48.862;9.188;2022-07-22T02:50:50;19.80;99.90
9209;DHT22;4639;48.862;9.188;2022-07-22T02:53:16;19.60;99.90
9209;DHT22;4639;48.862;9.188;2022-07-22T02:55:41;19.50;99.90
9209;DHT22;4639;48.862;9.188;2022-07-22T02:58:08;19.50;99.90
9209;DHT22;4639;48.862;9.188;2022-07-22T03:00:34;19.50;99.90
9209;DHT22;4639;48.862;9.188;2022-07-22T03:03:00;19.50;99.90
9209;DHT22;4639;48.862;9.188;2022-07-22T03:05:26;19.50;99.90
9209;DHT22;4639;48.862;9.188;2022-07-22T03:07:52;19.50;99.90
9209;DHT22;4639;48.862;9.188;2022-07-22T03:10:17;19.40;99.90
9209;DHT22;4639;48.862;9.188;2022-07-22T03:12:43;19.50;99.90
9209;DHT22;4639;48.862;9.188;2022-07-22T03:15:09;19.40;99.90
9209;DHT22;4639;48.862;9.188;2022-07-22T03:17:35;19.30;99.90
9209;DHT22;4639;48.862;9.188;2022-07-22T03:20:06;19.30;99.90
9209;DHT22;4639;48.862;9.188;2022-07-22T03:22:32;19.20;99.90
9209;DHT22;4639;48.862;9.188;2022-07-22T03:24:58;19.20;99.90
9209;DHT22;4639;48.862;9.188;2022-07-22T03:27:24;19.30;99.90
9209;DHT22;4639;48.862;9.188;2022-07-22T03:29:50;19.30;99.90
9209;DHT22;4639;48.862;9.188;2022-07-22T03:32:16;19.30;99.90
9209;DHT22;4639;48.862;9.188;2022-07-22T03:34:41;19.30;99.90
9209;DHT22;4639;48.862;9.188;2022-07-22T03:37:07;19.30;99.90
9209;DHT22;4639;48.862;9.188;2022-07-22T03:39:33;19.40;99.90
9209;DHT22;4639;48.862;9.188;2022-07-22T03:41:58;19.20;99.90
9209;DHT22;4639;48.862;9.188;2022-07-22T03:44:24;19.10;99.90
9209;DHT22;4639;48.862;9.188;2022-07-22T03:46:50;19.10;99.90
9209;DHT22;4639;48.862;9.188;2022-07-22T03:49:15;19.10;99.90
9209;DHT22;4639;48.862;9.188;2022-07-22T03:51:41;19.10;99.90
9209;DHT22;4639;48.862;9.188;2022-07-22T03:54:07;19.00;99.90
9209;DHT22;4639;48.862;9.188;2022-07-22T03:56:32;19.00;99.90
9209;DHT22;4639;48.862;9.188;2022-07-22T03:58:58;19.00;99.90
9209;DHT22;4639;48.862;9.188;2022-07-22T04:01:24;19.00;99.90
9209;DHT22;4639;48.862;9.188;2022-07-22T04:03:49;19.00;99.90
9209;DHT22;4639;48.862;9.188;2022-07-22T04:06:16;19.00;99.90
9209;DHT22;4639;48.862;9.188;2022-07-22T04:08:41;19.00;99.90
9209;DHT22;4639;48.862;9.188;2022-07-22T04:11:07;18.90;99.90
9209;DHT22;4639;48.862;9.188;2022-07-22T04:13:33;18.80;99.90
9209;DHT22;4639;48.862;9.188;2022-07-22T04:16:02;18.80;99.90
9209;DHT22;4639;48.862;9.188;2022-07-22T04:18:30;18.90;99.90
9209;DHT22;4639;48.862;9.188;2022-07-22T04:20:56;18.90;99.90
9209;DHT22;4639;48.862;9.188;2022-07-22T04:23:21;18.80;99.90
9209;DHT22;4639;48.862;9.188;2022-07-22T04:25:47;18.90;99.90
9209;DHT22;4639;48.862;9.188;2022-07-22T04:28:13;18.90;99.90
9209;DHT22;4639;48.862;9.188;2022-07-22T04:30:38;18.70;99.90
9209;DHT22;4639;48.862;9.188;2022-07-22T04:33:04;18.70;99.90
9209;DHT22;4639;48.862;9.188;2022-07-22T04:35:29;18.70;99.90
9209;DHT22;4639;48.862;9.188;2022-07-22T04:37:55;18.80;99.90
9209;DHT22;4639;48.862;9.188;2022-07-22T04:40:21;18.90;99.90
9209;DHT22;4639;48.862;9.188;2022-07-22T04:42:46;18.90;99.90
9209;DHT22;4639;48.862;9.188;2022-07-22T04:45:12;18.90;99.90
9209;DHT22;4639;48.862;9.188;2022-07-22T04:47:38;18.80;99.90
9209;DHT22;4639;48.862;9.188;2022-07-22T04:50:04;18.90;99.90
9209;DHT22;4639;48.862;9.188;2022-07-22T04:52:29;19.00;99.90
9209;DHT22;4639;48.862;9.188;2022-07-22T04:54:55;19.00;99.90
9209;DHT22;4639;48.862;9.188;2022-07-22T04:57:21;19.20;99.90
9209;DHT22;4639;48.862;9.188;2022-07-22T04:59:47;19.10;99.90
9209;DHT22;4639;48.862;9.188;2022-07-22T05:02:12;19.20;99.90
9209;DHT22;4639;48.862;9.188;2022-07-22T05:04:38;19.20;99.90
9209;DHT22;4639;48.862;9.188;2022-07-22T05:07:03;19.30;99.90
9209;DHT22;4639;48.862;9.188;2022-07-22T05:09:29;19.40;99.90
9209;DHT22;4639;48.862;9.188;2022-07-22T05:11:54;19.40;99.90
9209;DHT22;4639;48.862;9.188;2022-07-22T05:14:20;19.50;99.90
9209;DHT22;4639;48.862;9.188;2022-07-22T05:16:46;19.60;99.90
9209;DHT22;4639;48.862;9.188;2022-07-22T05:19:11;19.70;99.90
9209;DHT22;4639;48.862;9.188;2022-07-22T05:21:37;19.70;99.90
9209;DHT22;4639;48.862;9.188;2022-07-22T05:24:03;19.70;99.90
9209;DHT22;4639;48.862;9.188;2022-07-22T05:26:29;19.80;99.90
9209;DHT22;4639;48.862;9.188;2022-07-22T05:29:08;19.80;99.90
9209;DHT22;4639;48.862;9.188;2022-07-22T05:31:34;19.80;99.90
9209;DHT22;4639;48.862;9.188;2022-07-22T05:33:59;19.90;99.90
9209;DHT22;4639;48.862;9.188;2022-07-22T05:36:25;19.90;99.90
9209;DHT22;4639;48.862;9.188;2022-07-22T05:38:51;19.90;99.90
9209;DHT22;4639;48.862;9.188;2022-07-22T05:41:17;19.90;99.90
9209;DHT22;4639;48.862;9.188;2022-07-22T05:43:43;19.90;99.90
9209;DHT22;4639;48.862;9.188;2022-07-22T05:46:08;19.90;99.90
9209;DHT22;4639;48.862;9.188;2022-07-22T05:48:34;20.00;99.90
9209;DHT22;4639;48.862;9.188;2022-07-22T05:51:00;20.10;99.90
9209;DHT22;4639;48.862;9.188;2022-07-22T05:53:25;20.10;99.90
9209;DHT22;4639;48.862;9.188;2022-07-22T05:55:51;20.20;99.90
9209;DHT22;4639;48.862;9.188;2022-07-22T05:58:17;20.20;99.90
9209;DHT22;4639;48.862;9.188;2022-07-22T06:00:43;20.20;99.90
9209;DHT22;4639;48.862;9.188;2022-07-22T06:03:08;20.10;99.90
9209;DHT22;4639;48.862;9.188;2022-07-22T06:05:34;20.20;99.90
9209;DHT22;4639;48.862;9.188;2022-07-22T06:08:03;20.20;99.90
9209;DHT22;4639;48.862;9.188;2022-07-22T06:10:29;20.30;99.90
9209;DHT22;4639;48.862;9.188;2022-07-22T06:12:55;20.40;99.90
9209;DHT22;4639;48.862;9.188;2022-07-22T06:15:20;20.50;99.90
9209;DHT22;4639;48.862;9.188;2022-07-22T06:17:46;20.50;99.90
9209;DHT22;4639;48.862;9.188;2022-07-22T06:20:11;20.60;99.90
9209;DHT22;4639;48.862;9.188;2022-07-22T06:22:39;20.60;99.90
9209;DHT22;4639;48.862;9.188;2022-07-22T06:25:05;20.60;99.90
9209;DHT22;4639;48.862;9.188;2022-07-22T06:27:31;20.60;99.90
9209;DHT22;4639;48.862;9.188;2022-07-22T06:29:56;20.60;99.90
9209;DHT22;4639;48.862;9.188;2022-07-22T06:32:22;20.60;99.90
9209;DHT22;4639;48.862;9.188;2022-07-22T06:34:48;20.70;99.90
9209;DHT22;4639;48.862;9.188;2022-07-22T06:37:13;20.70;99.90
9209;DHT22;4639;48.862;9.188;2022-07-22T06:39:39;20.80;99.90
9209;DHT22;4639;48.862;9.188;2022-07-22T06:42:04;20.90;99.90
9209;DHT22;4639;48.862;9.188;2022-07-22T06:44:30;20.90;99.90
9209;DHT22;4639;48.862;9.188;2022-07-22T06:46:56;20.90;99.90
9209;DHT22;4639;48.862;9.188;2022-07-22T06:49:21;21.00;99.90
9209;DHT22;4639;48.862;9.188;2022-07-22T06:51:47;21.00;99.90
9209;DHT22;4639;48.862;9.188;2022-07-22T06:54:12;21.10;99.90
9209;DHT22;4639;48.862;9.188;2022-07-22T06:56:38;21.20;99.90
9209;DHT22;4639;48.862;9.188;2022-07-22T06:59:04;21.20;99.90
9209;DHT22;4639;48.862;9.188;2022-07-22T07:01:29;21.20;99.90
9209;DHT22;4639;48.862;9.188;2022-07-22T07:03:55;21.30;99.90
9209;DHT22;4639;48.862;9.188;2022-07-22T07:06:20;21.30;99.90
9209;DHT22;4639;48.862;9.188;2022-07-22T07:08:46;21.40;99.90
9209;DHT22;4639;48.862;9.188;2022-07-22T07:11:12;21.50;99.90
9209;DHT22;4639;48.862;9.188;2022-07-22T07:13:37;21.60;99.90
9209;DHT22;4639;48.862;9.188;2022-07-22T07:16:03;21.60;99.90
9209;DHT22;4639;48.862;9.188;2022-07-22T07:18:29;21.70;99.90
9209;DHT22;4639;48.862;9.188;2022-07-22T07:20:55;21.70;99.90
9209;DHT22;4639;48.862;9.188;2022-07-22T07:23:28;21.80;99.90
9209;DHT22;4639;48.862;9.188;2022-07-22T07:25:54;21.80;99.90
9209;DHT22;4639;48.862;9.188;2022-07-22T07:28:20;21.90;99.90
9209;DHT22;4639;48.862;9.188;2022-07-22T07:30:46;21.90;99.90
9209;DHT22;4639;48.862;9.188;2022-07-22T07:33:12;22.00;99.90
9209;DHT22;4639;48.862;9.188;2022-07-22T07:35:37;22.10;99.90
9209;DHT22;4639;48.862;9.188;2022-07-22T07:38:03;22.10;99.90
9209;DHT22;4639;48.862;9.188;2022-07-22T07:40:29;22.00;99.90
9209;DHT22;4639;48.862;9.188;2022-07-22T07:42:55;22.10;99.90
9209;DHT22;4639;48.862;9.188;2022-07-22T07:45:20;22.30;99.90
9209;DHT22;4639;48.862;9.188;2022-07-22T07:47:46;22.30;99.90
9209;DHT22;4639;48.862;9.188;2022-07-22T07:50:11;22.30;99.90
9209;DHT22;4639;48.862;9.188;2022-07-22T07:52:42;22.30;99.90
9209;DHT22;4639;48.862;9.188;2022-07-22T07:55:09;22.30;99.90
9209;DHT22;4639;48.862;9.188;2022-07-22T07:57:36;22.30;99.90
9209;DHT22;4639;48.862;9.188;2022-07-22T08:00:04;22.40;99.90
9209;DHT22;4639;48.862;9.188;2022-07-22T08:02:30;22.50;99.90
9209;DHT22;4639;48.862;9.188;2022-07-22T08:04:55;22.50;99.90
9209;DHT22;4639;48.862;9.188;2022-07-22T08:07:21;22.50;99.90
9209;DHT22;4639;48.862;9.188;2022-07-22T08:09:47;22.50;99.90
9209;DHT22;4639;48.862;9.188;2022-07-22T08:12:12;22.60;99.90
9209;DHT22;4639;48.862;9.188;2022-07-22T08:14:38;22.80;99.90
9209;DHT22;4639;48.862;9.188;2022-07-22T08:17:03;23.00;99.90
9209;DHT22;4639;48.862;9.188;2022-07-22T08:19:29;23.20;99.90
9209;DHT22;4639;48.862;9.188;2022-07-22T08:21:55;23.40;99.90
9209;DHT22;4639;48.862;9.188;2022-07-22T08:24:20;23.60;99.90
9209;DHT22;4639;48.862;9.188;2022-07-22T08:26:46;23.80;99.90
9209;DHT22;4639;48.862;9.188;2022-07-22T08:29:11;23.90;99.90
9209;DHT22;4639;48.862;9.188;2022-07-22T08:31:37;24.00;99.90
9209;DHT22;4639;48.862;9.188;2022-07-22T08:34:04;24.10;99.90
9209;DHT22;4639;48.862;9.188;2022-07-22T08:36:30;24.20;99.90
9209;DHT22;4639;48.862;9.188;2022-07-22T08:38:56;24.40;99.90
9209;DHT22;4639;48.862;9.188;2022-07-22T08:41:23;24.60;99.90
9209;DHT22;4639;48.862;9.188;2022-07-22T08:43:49;24.70;99.90
9209;DHT22;4639;48.862;9.188;2022-07-22T08:46:15;24.70;99.90
9209;DHT22;4639;48.862;9.188;2022-07-22T08:48:41;24.70;99.90
9209;DHT22;4639;48.862;9.188;2022-07-22T08:51:07;24.70;99.90
9209;DHT22;4639;48.862;9.188;2022-07-22T08:53:33;24.70;99.90
9209;DHT22;4639;48.862;9.188;2022-07-22T08:55:59;24.80;99.90
9209;DHT22;4639;48.862;9.188;2022-07-22T08:58:25;25.10;99.90
9209;DHT22;4639;48.862;9.188;2022-07-22T09:01:14;25.40;99.90
9209;DHT22;4639;48.862;9.188;2022-07-22T09:03:54;25.70;99.90
9209;DHT22;4639;48.862;9.188;2022-07-22T09:06:23;26.00;99.90
9209;DHT22;4639;48.862;9.188;2022-07-22T09:08:54;26.20;99.90
9209;DHT22;4639;48.862;9.188;2022-07-22T09:11:22;26.30;99.90
9209;DHT22;4639;48.862;9.188;2022-07-22T09:13:49;26.50;99.90
9209;DHT22;4639;48.862;9.188;2022-07-22T09:16:15;26.60;99.90
9209;DHT22;4639;48.862;9.188;2022-07-22T09:18:52;26.60;99.90
9209;DHT22;4639;48.862;9.188;2022-07-22T09:21:20;26.70;99.90
9209;DHT22;4639;48.862;9.188;2022-07-22T09:23:46;26.90;99.90
9209;DHT22;4639;48.862;9.188;2022-07-22T09:26:32;26.90;99.90
9209;DHT22;4639;48.862;9.188;2022-07-22T09:28:59;27.00;99.90
9209;DHT22;4639;48.862;9.188;2022-07-22T09:31:36;27.00;99.90
9209;DHT22;4639;48.862;9.188;2022-07-22T09:34:03;27.10;99.90
9209;DHT22;4639;48.862;9.188;2022-07-22T09:36:30;27.30;99.90
9209;DHT22;4639;48.862;9.188;2022-07-22T09:38:56;27.50;99.90
9209;DHT22;4639;48.862;9.188;2022-07-22T09:41:22;27.80;99.90
9209;DHT22;4639;48.862;9.188;2022-07-22T09:43:48;27.90;99.90
9209;DHT22;4639;48.862;9.188;2022-07-22T09:46:15;28.10;99.90
9209;DHT22;4639;48.862;9.188;2022-07-22T09:48:41;28.40;99.90
9209;DHT22;4639;48.862;9.188;2022-07-22T09:51:08;28.60;99.90
9209;DHT22;4639;48.862;9.188;2022-07-22T09:53:35;28.70;99.90
9209;DHT22;4639;48.862;9.188;2022-07-22T09:56:04;28.70;99.90
9209;DHT22;4639;48.862;9.188;2022-07-22T09:58:30;28.70;99.90
9209;DHT22;4639;48.862;9.188;2022-07-22T10:00:59;28.90;99.90
9209;DHT22;4639;48.862;9.188;2022-07-22T10:03:32;29.20;99.90
9209;DHT22;4639;48.862;9.188;2022-07-22T10:05:59;29.40;99.90
9209;DHT22;4639;48.862;9.188;2022-07-22T10:08:26;29.60;99.90
9209;DHT22;4639;48.862;9.188;2022-07-22T10:10:53;29.90;99.90
9209;DHT22;4639;48.862;9.188;2022-07-22T10:13:19;29.90;99.90
9209;DHT22;4639;48.862;9.188;2022-07-22T10:15:45;30.00;99.90
9209;DHT22;4639;48.862;9.188;2022-07-22T10:18:17;30.30;99.90
9209;DHT22;4639;48.862;9.188;2022-07-22T10:20:44;30.40;99.90
9209;DHT22;4639;48.862;9.188;2022-07-22T10:23:11;30.40;99.90
9209;DHT22;4639;48.862;9.188;2022-07-22T10:25:54;30.60;99.90
9209;DHT22;4639;48.862;9.188;2022-07-22T10:28:33;30.90;99.90
9209;DHT22;4639;48.862;9.188;2022-07-22T10:31:21;31.10;99.90
9209;DHT22;4639;48.862;9.188;2022-07-22T10:33:55;31.30;99.90
9209;DHT22;4639;48.862;9.188;2022-07-22T10:36:35;31.40;99.90
9209;DHT22;4639;48.862;9.188;2022-07-22T10:41:44;31.20;99.90
9209;DHT22;4639;48.862;9.188;2022-07-22T10:44:10;31.40;99.90
9209;DHT22;4639;48.862;9.188;2022-07-22T10:46:54;31.50;99.90
9209;DHT22;4639;48.862;9.188;2022-07-22T10:49:26;31.60;99.90
9209;DHT22;4639;48.862;9.188;2022-07-22T10:54:33;32.00;99.90
9209;DHT22;4639;48.862;9.188;2022-07-22T10:57:00;32.30;99.90
9209;DHT22;4639;48.862;9.188;2022-07-22T10:59:26;32.70;99.90
9209;DHT22;4639;48.862;9.188;2022-07-22T11:01:52;32.80;99.90
9209;DHT22;4639;48.862;9.188;2022-07-22T11:04:24;32.90;99.90
9209;DHT22;4639;48.862;9.188;2022-07-22T11:06:52;32.80;99.90
9209;DHT22;4639;48.862;9.188;2022-07-22T11:09:20;33.00;99.90
9209;DHT22;4639;48.862;9.188;2022-07-22T11:11:55;33.20;99.90
9209;DHT22;4639;48.862;9.188;2022-07-22T11:14:28;33.60;99.90
9209;DHT22;4639;48.862;9.188;2022-07-22T11:16:58;33.90;99.90
9209;DHT22;4639;48.862;9.188;2022-07-22T11:19:26;34.30;99.90
9209;DHT22;4639;48.862;9.188;2022-07-22T11:21:57;34.60;99.90
9209;DHT22;4639;48.862;9.188;2022-07-22T11:24:24;34.70;99.90
9209;DHT22;4639;48.862;9.188;2022-07-22T11:26:52;34.70;99.90
9209;DHT22;4639;48.862;9.188;2022-07-22T11:29:36;33.90;99.90
9209;DHT22;4639;48.862;9.188;2022-07-22T11:32:10;32.70;99.90
9209;DHT22;4639;48.862;9.188;2022-07-22T11:34:39;32.50;99.90
9209;DHT22;4639;48.862;9.188;2022-07-22T11:37:08;32.60;99.90
9209;DHT22;4639;48.862;9.188;2022-07-22T11:39:34;33.10;99.90
9209;DHT22;4639;48.862;9.188;2022-07-22T11:42:00;33.30;99.90
9209;DHT22;4639;48.862;9.188;2022-07-22T11:44:32;33.60;99.90
9209;DHT22;4639;48.862;9.188;2022-07-22T11:46:58;34.00;99.90
9209;DHT22;4639;48.862;9.188;2022-07-22T11:49:26;34.20;99.90
9209;DHT22;4639;48.862;9.188;2022-07-22T11:51:53;34.10;99.90
9209;DHT22;4639;48.862;9.188;2022-07-22T11:54:19;33.80;99.90
9209;DHT22;4639;48.862;9.188;2022-07-22T11:56:45;32.90;99.90
9209;DHT22;4639;48.862;9.188;2022-07-22T11:59:16;32.20;99.90
9209;DHT22;4639;48.862;9.188;2022-07-22T12:01:44;31.80;99.90
9209;DHT22;4639;48.862;9.188;2022-07-22T12:04:18;31.60;99.90
9209;DHT22;4639;48.862;9.188;2022-07-22T12:06:44;31.60;99.90
9209;DHT22;4639;48.862;9.188;2022-07-22T12:09:16;31.30;99.90
9209;DHT22;4639;48.862;9.188;2022-07-22T12:11:51;31.10;99.90
9209;DHT22;4639;48.862;9.188;2022-07-22T12:14:26;31.30;99.90
9209;DHT22;4639;48.862;9.188;2022-07-22T12:19:30;31.70;99.90
9209;DHT22;4639;48.862;9.188;2022-07-22T12:21:58;31.60;99.90
9209;DHT22;4639;48.862;9.188;2022-07-22T12:24:32;31.70;99.90
9209;DHT22;4639;48.862;9.188;2022-07-22T12:27:05;31.60;99.90
9209;DHT22;4639;48.862;9.188;2022-07-22T12:34:43;31.90;99.90
9209;DHT22;4639;48.862;9.188;2022-07-22T12:37:14;32.50;99.90
9209;DHT22;4639;48.862;9.188;2022-07-22T12:40:36;33.20;99.90
9209;DHT22;4639;48.862;9.188;2022-07-22T12:42:45;33.70;99.90
9209;DHT22;4639;48.862;9.188;2022-07-22T12:45:15;34.20;99.90
9209;DHT22;4639;48.862;9.188;2022-07-22T12:50:38;34.90;99.90
9209;DHT22;4639;48.862;9.188;2022-07-22T12:55:33;35.50;99.90
9209;DHT22;4639;48.862;9.188;2022-07-22T12:57:59;35.70;99.90
9209;DHT22;4639;48.862;9.188;2022-07-22T13:00:28;35.70;99.90
9209;DHT22;4639;48.862;9.188;2022-07-22T13:02:54;35.50;99.90
9209;DHT22;4639;48.862;9.188;2022-07-22T13:05:21;35.40;99.90
9209;DHT22;4639;48.862;9.188;2022-07-22T13:07:47;35.10;99.90
9209;DHT22;4639;48.862;9.188;2022-07-22T13:10:14;35.00;99.90
9209;DHT22;4639;48.862;9.188;2022-07-22T13:12:40;34.90;99.90
9209;DHT22;4639;48.862;9.188;2022-07-22T13:15:08;35.00;99.90
9209;DHT22;4639;48.862;9.188;2022-07-22T13:17:34;35.10;99.90
9209;DHT22;4639;48.862;9.188;2022-07-22T13:20:00;35.10;99.90
9209;DHT22;4639;48.862;9.188;2022-07-22T13:22:26;34.90;99.90
9209;DHT22;4639;48.862;9.188;2022-07-22T13:24:52;35.10;99.90
9209;DHT22;4639;48.862;9.188;2022-07-22T13:27:17;35.40;99.90
9209;DHT22;4639;48.862;9.188;2022-07-22T13:29:43;35.50;99.40
9209;DHT22;4639;48.862;9.188;2022-07-22T13:32:09;35.80;99.90
9209;DHT22;4639;48.862;9.188;2022-07-22T13:34:34;36.10;98.60
9209;DHT22;4639;48.862;9.188;2022-07-22T13:37:00;36.10;98.30
9209;DHT22;4639;48.862;9.188;2022-07-22T13:39:26;36.10;97.60
9209;DHT22;4639;48.862;9.188;2022-07-22T13:41:52;36.10;97.70
9209;DHT22;4639;48.862;9.188;2022-07-22T13:44:18;36.10;98.60
9209;DHT22;4639;48.862;9.188;2022-07-22T13:46:43;36.10;97.60
9209;DHT22;4639;48.862;9.188;2022-07-22T13:49:09;36.00;97.40
9209;DHT22;4639;48.862;9.188;2022-07-22T13:51:35;35.80;97.70
9209;DHT22;4639;48.862;9.188;2022-07-22T13:54:00;35.50;98.10
9209;DHT22;4639;48.862;9.188;2022-07-22T13:56:26;35.00;98.80
9209;DHT22;4639;48.862;9.188;2022-07-22T13:58:52;34.80;98.50
9209;DHT22;4639;48.862;9.188;2022-07-22T14:01:17;35.00;98.60
9209;DHT22;4639;48.862;9.188;2022-07-22T14:03:43;35.10;98.50
9209;DHT22;4639;48.862;9.188;2022-07-22T14:06:09;35.10;98.60
9209;DHT22;4639;48.862;9.188;2022-07-22T14:08:35;35.10;98.90
9209;DHT22;4639;48.862;9.188;2022-07-22T14:11:02;35.00;98.40
9209;DHT22;4639;48.862;9.188;2022-07-22T14:13:28;35.10;98.50
9209;DHT22;4639;48.862;9.188;2022-07-22T14:15:53;35.20;98.40
9209;DHT22;4639;48.862;9.188;2022-07-22T14:18:19;35.50;98.90
9209;DHT22;4639;48.862;9.188;2022-07-22T14:20:45;35.80;97.90
9209;DHT22;4639;48.862;9.188;2022-07-22T14:23:10;35.30;97.30
9209;DHT22;4639;48.862;9.188;2022-07-22T14:25:37;35.20;98.80
9209;DHT22;4639;48.862;9.188;2022-07-22T14:28:04;35.30;98.50
9209;DHT22;4639;48.862;9.188;2022-07-22T14:30:30;35.60;98.70
9209;DHT22;4639;48.862;9.188;2022-07-22T14:32:56;36.00;98.30
9209;DHT22;4639;48.862;9.188;2022-07-22T14:35:22;36.50;97.50
9209;DHT22;4639;48.862;9.188;2022-07-22T14:37:48;36.80;96.30
9209;DHT22;4639;48.862;9.188;2022-07-22T14:40:14;37.10;97.90
9209;DHT22;4639;48.862;9.188;2022-07-22T14:42:40;37.10;95.40
9209;DHT22;4639;48.862;9.188;2022-07-22T14:45:07;35.90;96.20
9209;DHT22;4639;48.862;9.188;2022-07-22T14:47:37;35.50;97.30
9209;DHT22;4639;48.862;9.188;2022-07-22T14:50:04;35.50;98.50
9209;DHT22;4639;48.862;9.188;2022-07-22T14:52:30;35.90;97.40
9209;DHT22;4639;48.862;9.188;2022-07-22T14:54:56;36.20;97.50
9209;DHT22;4639;48.862;9.188;2022-07-22T14:57:21;36.40;97.50
9209;DHT22;4639;48.862;9.188;2022-07-22T14:59:47;36.60;96.80
9209;DHT22;4639;48.862;9.188;2022-07-22T15:02:13;36.80;96.80
9209;DHT22;4639;48.862;9.188;2022-07-22T15:04:38;36.90;96.70
9209;DHT22;4639;48.862;9.188;2022-07-22T15:07:04;37.00;97.20
9209;DHT22;4639;48.862;9.188;2022-07-22T15:09:30;37.10;96.10
9209;DHT22;4639;48.862;9.188;2022-07-22T15:11:55;37.30;96.40
9209;DHT22;4639;48.862;9.188;2022-07-22T15:14:21;37.50;96.10
9209;DHT22;4639;48.862;9.188;2022-07-22T15:16:46;37.60;95.80
9209;DHT22;4639;48.862;9.188;2022-07-22T15:19:12;37.60;95.00
9209;DHT22;4639;48.862;9.188;2022-07-22T15:21:38;37.80;95.50
9209;DHT22;4639;48.862;9.188;2022-07-22T15:24:04;37.90;95.20
9209;DHT22;4639;48.862;9.188;2022-07-22T15:26:31;38.10;94.50
9209;DHT22;4639;48.862;9.188;2022-07-22T15:28:56;38.20;94.50
9209;DHT22;4639;48.862;9.188;2022-07-22T15:31:22;38.20;94.10
9209;DHT22;4639;48.862;9.188;2022-07-22T15:33:48;38.40;95.10
9209;DHT22;4639;48.862;9.188;2022-07-22T15:36:15;38.40;94.00
9209;DHT22;4639;48.862;9.188;2022-07-22T15:38:41;38.30;93.40
9209;DHT22;4639;48.862;9.188;2022-07-22T15:41:08;37.80;94.10
9209;DHT22;4639;48.862;9.188;2022-07-22T15:43:34;37.40;95.50
9209;DHT22;4639;48.862;9.188;2022-07-22T15:46:00;37.40;94.60
9209;DHT22;4639;48.862;9.188;2022-07-22T15:48:26;37.60;94.10
9209;DHT22;4639;48.862;9.188;2022-07-22T15:50:52;37.70;93.90
9209;DHT22;4639;48.862;9.188;2022-07-22T15:53:18;37.70;93.80
9209;DHT22;4639;48.862;9.188;2022-07-22T15:55:44;37.70;94.00
9209;DHT22;4639;48.862;9.188;2022-07-22T15:58:09;37.70;94.70
9209;DHT22;4639;48.862;9.188;2022-07-22T16:00:53;37.80;95.00
9209;DHT22;4639;48.862;9.188;2022-07-22T16:03:19;37.80;93.60
9209;DHT22;4639;48.862;9.188;2022-07-22T16:05:45;37.80;93.70
9209;DHT22;4639;48.862;9.188;2022-07-22T16:08:10;37.70;93.60
9209;DHT22;4639;48.862;9.188;2022-07-22T16:10:36;37.70;93.40
9209;DHT22;4639;48.862;9.188;2022-07-22T16:13:01;37.70;92.90
9209;DHT22;4639;48.862;9.188;2022-07-22T16:15:27;37.80;93.70
9209;DHT22;4639;48.862;9.188;2022-07-22T16:17:53;38.00;92.50